sensor_id;sensor_type;location;lat;lon;timestamp;P1;durP1;ratioP1;P2;durP2;ratioP2
13816;SDS011;6979;52.116;5.286;2023-12-04T00:00:06;15.73;;;12.03;;
13816;SDS011;6979;52.116;5.286;2023-12-04T00:02:37;16.67;;;12.47;;
13816;SDS011;6979;52.116;5.286;2023-12-04T00:05:09;18.53;;;13.93;;
13816;SDS011;6979;52.116;5.286;2023-12-04T00:07:38;16.60;;;11.97;;
13816;SDS011;6979;52.116;5.286;2023-12-04T00:11:26;15.03;;;11.30;;
13816;SDS011;6979;52.116;5.286;2023-12-04T00:13:54;17.87;;;11.47;;
13816;SDS011;6979;52.116;5.286;2023-12-04T00:16:21;15.30;;;12.03;;
13816;SDS011;6979;52.116;5.286;2023-12-04T00:18:48;18.07;;;12.40;;
13816;SDS011;6979;52.116;5.286;2023-12-04T00:21:15;15.57;;;12.67;;
13816;SDS011;6979;52.116;5.286;2023-12-04T00:23:42;17.80;;;12.57;;
13816;SDS011;6979;52.116;5.286;2023-12-04T00:26:15;16.00;;;11.67;;
13816;SDS011;6979;52.116;5.286;2023-12-04T00:28:42;17.77;;;12.33;;
13816;SDS011;6979;52.116;5.286;2023-12-04T00:31:11;16.70;;;12.67;;
13816;SDS011;6979;52.116;5.286;2023-12-04T00:33:38;20.03;;;13.47;;
13816;SDS011;6979;52.116;5.286;2023-12-04T00:36:05;16.40;;;12.67;;
13816;SDS011;6979;52.116;5.286;2023-12-04T00:38:34;18.33;;;13.13;;
13816;SDS011;6979;52.116;5.286;2023-12-04T00:41:02;15.57;;;13.00;;
13816;SDS011;6979;52.116;5.286;2023-12-04T00:43:30;14.97;;;10.97;;
13816;SDS011;6979;52.116;5.286;2023-12-04T00:45:57;16.17;;;11.97;;
13816;SDS011;6979;52.116;5.286;2023-12-04T00:48:26;15.07;;;11.07;;
13816;SDS011;6979;52.116;5.286;2023-12-04T00:50:54;14.40;;;12.10;;
13816;SDS011;6979;52.116;5.286;2023-12-04T00:53:20;15.27;;;12.70;;
13816;SDS011;6979;52.116;5.286;2023-12-04T00:55:49;15.67;;;11.27;;
13816;SDS011;6979;52.116;5.286;2023-12-04T00:58:16;18.47;;;12.47;;
13816;SDS011;6979;52.116;5.286;2023-12-04T01:00:43;16.13;;;12.17;;
13816;SDS011;6979;52.116;5.286;2023-12-04T01:03:10;14.27;;;10.80;;
13816;SDS011;6979;52.116;5.286;2023-12-04T01:05:38;16.07;;;10.97;;
13816;SDS011;6979;52.116;5.286;2023-12-04T01:08:05;18.73;;;12.27;;
13816;SDS011;6979;52.116;5.286;2023-12-04T01:10:32;20.40;;;13.67;;
13816;SDS011;6979;52.116;5.286;2023-12-04T01:13:01;13.37;;;11.03;;
13816;SDS011;6979;52.116;5.286;2023-12-04T01:15:28;15.40;;;11.33;;
13816;SDS011;6979;52.116;5.286;2023-12-04T01:17:57;18.63;;;13.07;;
13816;SDS011;6979;52.116;5.286;2023-12-04T01:20:25;16.83;;;12.03;;
13816;SDS011;6979;52.116;5.286;2023-12-04T01:22:54;17.10;;;12.40;;
13816;SDS011;6979;52.116;5.286;2023-12-04T01:25:20;18.17;;;13.23;;
13816;SDS011;6979;52.116;5.286;2023-12-04T01:27:47;15.73;;;11.93;;
13816;SDS011;6979;52.116;5.286;2023-12-04T01:30:14;13.67;;;11.30;;
13816;SDS011;6979;52.116;5.286;2023-12-04T01:32:41;13.73;;;10.73;;
13816;SDS011;6979;52.116;5.286;2023-12-04T01:35:10;15.03;;;11.70;;
13816;SDS011;6979;52.116;5.286;2023-12-04T01:37:37;15.33;;;10.90;;
13816;SDS011;6979;52.116;5.286;2023-12-04T01:40:06;14.57;;;11.47;;
13816;SDS011;6979;52.116;5.286;2023-12-04T01:42:34;15.13;;;10.83;;
13816;SDS011;6979;52.116;5.286;2023-12-04T01:45:01;14.43;;;11.17;;
13816;SDS011;6979;52.116;5.286;2023-12-04T01:47:34;18.33;;;12.53;;
13816;SDS011;6979;52.116;5.286;2023-12-04T01:50:01;17.00;;;12.83;;
13816;SDS011;6979;52.116;5.286;2023-12-04T01:52:29;16.37;;;11.33;;
13816;SDS011;6979;52.116;5.286;2023-12-04T01:54:56;15.47;;;11.07;;
13816;SDS011;6979;52.116;5.286;2023-12-04T01:57:25;18.57;;;13.10;;
13816;SDS011;6979;52.116;5.286;2023-12-04T01:59:52;17.10;;;13.03;;
13816;SDS011;6979;52.116;5.286;2023-12-04T02:02:20;17.77;;;13.00;;
13816;SDS011;6979;52.116;5.286;2023-12-04T02:04:46;17.77;;;11.90;;
13816;SDS011;6979;52.116;5.286;2023-12-04T02:07:13;16.57;;;12.83;;
13816;SDS011;6979;52.116;5.286;2023-12-04T02:09:40;15.03;;;11.63;;
13816;SDS011;6979;52.116;5.286;2023-12-04T02:12:07;19.83;;;15.07;;
13816;SDS011;6979;52.116;5.286;2023-12-04T02:14:36;18.27;;;12.70;;
13816;SDS011;6979;52.116;5.286;2023-12-04T02:17:03;19.87;;;13.60;;
13816;SDS011;6979;52.116;5.286;2023-12-04T02:19:32;15.97;;;12.93;;
13816;SDS011;6979;52.116;5.286;2023-12-04T02:21:59;17.67;;;12.50;;
13816;SDS011;6979;52.116;5.286;2023-12-04T02:24:28;18.27;;;13.03;;
13816;SDS011;6979;52.116;5.286;2023-12-04T02:26:57;16.97;;;12.43;;
13816;SDS011;6979;52.116;5.286;2023-12-04T02:29:32;16.80;;;12.33;;
13816;SDS011;6979;52.116;5.286;2023-12-04T02:32:05;17.53;;;13.17;;
13816;SDS011;6979;52.116;5.286;2023-12-04T02:34:35;16.53;;;11.90;;
13816;SDS011;6979;52.116;5.286;2023-12-04T02:37:03;17.10;;;13.00;;
13816;SDS011;6979;52.116;5.286;2023-12-04T02:39:33;16.70;;;11.77;;
13816;SDS011;6979;52.116;5.286;2023-12-04T02:42:02;17.57;;;12.33;;
13816;SDS011;6979;52.116;5.286;2023-12-04T02:44:30;15.77;;;11.43;;
13816;SDS011;6979;52.116;5.286;2023-12-04T02:46:57;18.50;;;13.20;;
13816;SDS011;6979;52.116;5.286;2023-12-04T02:49:24;17.50;;;12.03;;
13816;SDS011;6979;52.116;5.286;2023-12-04T02:51:52;16.33;;;11.60;;
13816;SDS011;6979;52.116;5.286;2023-12-04T02:54:25;15.23;;;12.73;;
13816;SDS011;6979;52.116;5.286;2023-12-04T03:03:36;12.87;;;10.20;;
13816;SDS011;6979;52.116;5.286;2023-12-04T03:06:03;14.63;;;10.90;;
13816;SDS011;6979;52.116;5.286;2023-12-04T03:08:32;14.77;;;11.20;;
13816;SDS011;6979;52.116;5.286;2023-12-04T03:11:01;14.67;;;11.87;;
13816;SDS011;6979;52.116;5.286;2023-12-04T03:13:31;15.10;;;10.77;;
13816;SDS011;6979;52.116;5.286;2023-12-04T03:16:01;13.87;;;10.97;;
13816;SDS011;6979;52.116;5.286;2023-12-04T03:18:30;15.23;;;11.10;;
13816;SDS011;6979;52.116;5.286;2023-12-04T03:21:00;17.97;;;12.93;;
13816;SDS011;6979;52.116;5.286;2023-12-04T03:23:26;16.43;;;12.30;;
13816;SDS011;6979;52.116;5.286;2023-12-04T03:25:53;14.23;;;11.43;;
13816;SDS011;6979;52.116;5.286;2023-12-04T03:28:20;15.07;;;11.83;;
13816;SDS011;6979;52.116;5.286;2023-12-04T03:30:49;17.03;;;12.67;;
13816;SDS011;6979;52.116;5.286;2023-12-04T03:33:15;16.67;;;11.50;;
13816;SDS011;6979;52.116;5.286;2023-12-04T03:35:42;14.50;;;11.13;;
13816;SDS011;6979;52.116;5.286;2023-12-04T03:38:10;17.77;;;12.37;;
13816;SDS011;6979;52.116;5.286;2023-12-04T03:40:37;14.13;;;10.37;;
13816;SDS011;6979;52.116;5.286;2023-12-04T03:43:05;15.80;;;11.33;;
13816;SDS011;6979;52.116;5.286;2023-12-04T03:45:32;15.90;;;12.00;;
13816;SDS011;6979;52.116;5.286;2023-12-04T03:48:01;14.10;;;11.50;;
13816;SDS011;6979;52.116;5.286;2023-12-04T03:50:28;13.27;;;11.03;;
13816;SDS011;6979;52.116;5.286;2023-12-04T03:52:54;15.10;;;11.60;;
13816;SDS011;6979;52.116;5.286;2023-12-04T03:55:24;17.83;;;12.40;;
13816;SDS011;6979;52.116;5.286;2023-12-04T03:57:51;14.00;;;11.43;;
13816;SDS011;6979;52.116;5.286;2023-12-04T04:00:18;14.47;;;11.87;;
13816;SDS011;6979;52.116;5.286;2023-12-04T04:02:46;14.57;;;11.07;;
13816;SDS011;6979;52.116;5.286;2023-12-04T04:05:14;14.67;;;12.10;;
13816;SDS011;6979;52.116;5.286;2023-12-04T04:07:41;15.20;;;11.83;;
13816;SDS011;6979;52.116;5.286;2023-12-04T04:10:08;16.70;;;11.63;;
13816;SDS011;6979;52.116;5.286;2023-12-04T04:12:35;19.43;;;12.60;;
13816;SDS011;6979;52.116;5.286;2023-12-04T04:15:03;14.97;;;11.37;;
13816;SDS011;6979;52.116;5.286;2023-12-04T04:17:32;14.47;;;10.40;;
13816;SDS011;6979;52.116;5.286;2023-12-04T04:19:59;14.27;;;10.87;;
13816;SDS011;6979;52.116;5.286;2023-12-04T04:22:28;12.70;;;9.77;;
13816;SDS011;6979;52.116;5.286;2023-12-04T04:24:59;13.87;;;10.67;;
13816;SDS011;6979;52.116;5.286;2023-12-04T04:27:26;14.10;;;11.03;;
13816;SDS011;6979;52.116;5.286;2023-12-04T04:29:53;11.23;;;9.77;;
13816;SDS011;6979;52.116;5.286;2023-12-04T04:32:20;17.17;;;12.17;;
13816;SDS011;6979;52.116;5.286;2023-12-04T04:34:47;14.40;;;10.57;;
13816;SDS011;6979;52.116;5.286;2023-12-04T04:37:14;14.77;;;11.63;;
13816;SDS011;6979;52.116;5.286;2023-12-04T04:39:42;13.47;;;10.97;;
13816;SDS011;6979;52.116;5.286;2023-12-04T04:42:10;13.77;;;10.33;;
13816;SDS011;6979;52.116;5.286;2023-12-04T04:44:37;16.27;;;11.50;;
13816;SDS011;6979;52.116;5.286;2023-12-04T04:47:04;13.63;;;10.77;;
13816;SDS011;6979;52.116;5.286;2023-12-04T04:49:30;14.73;;;11.23;;
13816;SDS011;6979;52.116;5.286;2023-12-04T04:51:58;15.37;;;10.77;;
13816;SDS011;6979;52.116;5.286;2023-12-04T04:54:24;14.93;;;12.00;;
13816;SDS011;6979;52.116;5.286;2023-12-04T04:56:59;12.77;;;10.10;;
13816;SDS011;6979;52.116;5.286;2023-12-04T04:59:26;14.17;;;10.60;;
13816;SDS011;6979;52.116;5.286;2023-12-04T05:01:55;14.20;;;10.67;;
13816;SDS011;6979;52.116;5.286;2023-12-04T05:04:22;13.30;;;10.47;;
13816;SDS011;6979;52.116;5.286;2023-12-04T05:06:49;14.03;;;10.20;;
13816;SDS011;6979;52.116;5.286;2023-12-04T05:09:16;13.37;;;10.50;;
13816;SDS011;6979;52.116;5.286;2023-12-04T05:11:43;13.20;;;10.23;;
13816;SDS011;6979;52.116;5.286;2023-12-04T05:14:11;13.70;;;11.27;;
13816;SDS011;6979;52.116;5.286;2023-12-04T05:16:44;15.07;;;11.57;;
13816;SDS011;6979;52.116;5.286;2023-12-04T05:19:11;13.43;;;10.33;;
13816;SDS011;6979;52.116;5.286;2023-12-04T05:21:38;12.53;;;9.73;;
13816;SDS011;6979;52.116;5.286;2023-12-04T05:24:05;13.20;;;10.73;;
13816;SDS011;6979;52.116;5.286;2023-12-04T05:26:32;15.73;;;10.73;;
13816;SDS011;6979;52.116;5.286;2023-12-04T05:28:59;15.17;;;12.17;;
13816;SDS011;6979;52.116;5.286;2023-12-04T05:31:27;12.93;;;11.30;;
13816;SDS011;6979;52.116;5.286;2023-12-04T05:33:54;13.63;;;11.00;;
13816;SDS011;6979;52.116;5.286;2023-12-04T05:36:23;15.73;;;12.43;;
13816;SDS011;6979;52.116;5.286;2023-12-04T05:38:50;16.80;;;11.40;;
13816;SDS011;6979;52.116;5.286;2023-12-04T05:41:18;12.67;;;10.37;;
13816;SDS011;6979;52.116;5.286;2023-12-04T05:43:45;15.47;;;10.70;;
13816;SDS011;6979;52.116;5.286;2023-12-04T05:46:14;13.70;;;11.33;;
13816;SDS011;6979;52.116;5.286;2023-12-04T05:48:42;12.23;;;10.80;;
13816;SDS011;6979;52.116;5.286;2023-12-04T05:51:09;15.63;;;11.30;;
13816;SDS011;6979;52.116;5.286;2023-12-04T05:53:37;14.23;;;10.73;;
13816;SDS011;6979;52.116;5.286;2023-12-04T05:56:04;12.90;;;10.13;;
13816;SDS011;6979;52.116;5.286;2023-12-04T05:58:33;14.13;;;10.43;;
13816;SDS011;6979;52.116;5.286;2023-12-04T06:01:00;12.67;;;9.70;;
13816;SDS011;6979;52.116;5.286;2023-12-04T06:03:29;13.13;;;11.13;;
13816;SDS011;6979;52.116;5.286;2023-12-04T06:06:00;12.23;;;10.33;;
13816;SDS011;6979;52.116;5.286;2023-12-04T06:08:27;10.70;;;9.53;;
13816;SDS011;6979;52.116;5.286;2023-12-04T06:10:54;12.27;;;9.80;;
13816;SDS011;6979;52.116;5.286;2023-12-04T06:13:20;10.83;;;9.30;;
13816;SDS011;6979;52.116;5.286;2023-12-04T06:15:47;12.37;;;9.93;;
13816;SDS011;6979;52.116;5.286;2023-12-04T06:18:14;12.87;;;11.13;;
13816;SDS011;6979;52.116;5.286;2023-12-04T06:20:41;12.80;;;10.27;;
13816;SDS011;6979;52.116;5.286;2023-12-04T06:23:10;11.10;;;9.10;;
13816;SDS011;6979;52.116;5.286;2023-12-04T06:25:37;12.73;;;10.73;;
13816;SDS011;6979;52.116;5.286;2023-12-04T06:28:04;14.57;;;11.03;;
13816;SDS011;6979;52.116;5.286;2023-12-04T06:30:32;13.53;;;10.23;;
13816;SDS011;6979;52.116;5.286;2023-12-04T06:33:03;11.50;;;9.80;;
13816;SDS011;6979;52.116;5.286;2023-12-04T06:35:30;13.13;;;11.47;;
13816;SDS011;6979;52.116;5.286;2023-12-04T06:37:58;13.13;;;10.10;;
13816;SDS011;6979;52.116;5.286;2023-12-04T06:40:35;13.17;;;10.17;;
13816;SDS011;6979;52.116;5.286;2023-12-04T06:43:02;12.03;;;9.93;;
13816;SDS011;6979;52.116;5.286;2023-12-04T06:45:30;11.97;;;10.03;;
13816;SDS011;6979;52.116;5.286;2023-12-04T06:47:58;11.87;;;9.30;;
13816;SDS011;6979;52.116;5.286;2023-12-04T06:50:25;12.60;;;10.43;;
13816;SDS011;6979;52.116;5.286;2023-12-04T06:52:54;10.40;;;8.87;;
13816;SDS011;6979;52.116;5.286;2023-12-04T06:55:21;10.60;;;9.20;;
13816;SDS011;6979;52.116;5.286;2023-12-04T06:57:50;10.80;;;9.27;;
13816;SDS011;6979;52.116;5.286;2023-12-04T07:00:17;11.33;;;9.17;;
13816;SDS011;6979;52.116;5.286;2023-12-04T07:02:44;11.87;;;9.73;;
13816;SDS011;6979;52.116;5.286;2023-12-04T07:05:11;12.37;;;9.83;;
13816;SDS011;6979;52.116;5.286;2023-12-04T07:07:38;11.90;;;9.50;;
13816;SDS011;6979;52.116;5.286;2023-12-04T07:10:05;11.93;;;10.57;;
13816;SDS011;6979;52.116;5.286;2023-12-04T07:12:33;12.47;;;9.50;;
13816;SDS011;6979;52.116;5.286;2023-12-04T07:15:10;10.77;;;9.13;;
13816;SDS011;6979;52.116;5.286;2023-12-04T07:17:38;12.60;;;10.13;;
13816;SDS011;6979;52.116;5.286;2023-12-04T07:20:06;12.10;;;9.23;;
13816;SDS011;6979;52.116;5.286;2023-12-04T07:22:33;10.73;;;9.63;;
13816;SDS011;6979;52.116;5.286;2023-12-04T07:25:00;12.47;;;9.17;;
13816;SDS011;6979;52.116;5.286;2023-12-04T07:27:27;9.97;;;8.73;;
13816;SDS011;6979;52.116;5.286;2023-12-04T07:29:54;9.90;;;8.90;;
13816;SDS011;6979;52.116;5.286;2023-12-04T07:32:22;10.70;;;9.60;;
13816;SDS011;6979;52.116;5.286;2023-12-04T07:34:48;10.80;;;9.40;;
13816;SDS011;6979;52.116;5.286;2023-12-04T07:37:15;11.40;;;8.93;;
13816;SDS011;6979;52.116;5.286;2023-12-04T07:39:43;10.30;;;8.33;;
13816;SDS011;6979;52.116;5.286;2023-12-04T07:42:11;9.50;;;8.50;;
13816;SDS011;6979;52.116;5.286;2023-12-04T07:44:38;12.07;;;9.73;;
13816;SDS011;6979;52.116;5.286;2023-12-04T07:47:04;10.83;;;9.50;;
13816;SDS011;6979;52.116;5.286;2023-12-04T07:49:33;10.10;;;8.90;;
13816;SDS011;6979;52.116;5.286;2023-12-04T07:52:00;10.87;;;9.70;;
13816;SDS011;6979;52.116;5.286;2023-12-04T07:54:26;10.10;;;8.47;;
13816;SDS011;6979;52.116;5.286;2023-12-04T07:56:54;9.47;;;8.33;;
13816;SDS011;6979;52.116;5.286;2023-12-04T07:59:21;10.10;;;8.87;;
13816;SDS011;6979;52.116;5.286;2023-12-04T08:01:49;11.93;;;8.47;;
13816;SDS011;6979;52.116;5.286;2023-12-04T08:04:16;9.73;;;8.50;;
13816;SDS011;6979;52.116;5.286;2023-12-04T08:06:44;9.00;;;8.00;;
13816;SDS011;6979;52.116;5.286;2023-12-04T08:09:11;9.27;;;8.33;;
13816;SDS011;6979;52.116;5.286;2023-12-04T08:11:38;11.10;;;8.63;;
13816;SDS011;6979;52.116;5.286;2023-12-04T08:14:05;9.03;;;7.73;;
13816;SDS011;6979;52.116;5.286;2023-12-04T08:16:33;11.73;;;9.37;;
13816;SDS011;6979;52.116;5.286;2023-12-04T08:19:00;10.60;;;9.27;;
13816;SDS011;6979;52.116;5.286;2023-12-04T08:21:27;13.17;;;9.90;;
13816;SDS011;6979;52.116;5.286;2023-12-04T08:23:56;10.20;;;8.70;;
13816;SDS011;6979;52.116;5.286;2023-12-04T08:26:24;11.33;;;8.67;;
13816;SDS011;6979;52.116;5.286;2023-12-04T08:28:52;10.33;;;8.80;;
13816;SDS011;6979;52.116;5.286;2023-12-04T08:31:18;10.80;;;9.70;;
13816;SDS011;6979;52.116;5.286;2023-12-04T08:33:45;9.63;;;8.63;;
13816;SDS011;6979;52.116;5.286;2023-12-04T08:36:12;9.50;;;8.00;;
13816;SDS011;6979;52.116;5.286;2023-12-04T08:38:39;10.43;;;9.00;;
13816;SDS011;6979;52.116;5.286;2023-12-04T08:41:09;9.77;;;8.20;;
13816;SDS011;6979;52.116;5.286;2023-12-04T08:43:36;9.47;;;8.50;;
13816;SDS011;6979;52.116;5.286;2023-12-04T08:46:03;9.07;;;8.17;;
13816;SDS011;6979;52.116;5.286;2023-12-04T08:48:30;10.50;;;8.43;;
13816;SDS011;6979;52.116;5.286;2023-12-04T08:50:57;9.23;;;8.07;;
13816;SDS011;6979;52.116;5.286;2023-12-04T08:53:24;9.47;;;8.50;;
13816;SDS011;6979;52.116;5.286;2023-12-04T08:55:52;8.73;;;7.77;;
13816;SDS011;6979;52.116;5.286;2023-12-04T08:58:20;9.50;;;8.43;;
13816;SDS011;6979;52.116;5.286;2023-12-04T09:00:47;9.77;;;8.73;;
13816;SDS011;6979;52.116;5.286;2023-12-04T09:03:14;10.20;;;9.13;;
13816;SDS011;6979;52.116;5.286;2023-12-04T09:05:41;8.70;;;7.63;;
13816;SDS011;6979;52.116;5.286;2023-12-04T09:08:08;8.37;;;7.23;;
13816;SDS011;6979;52.116;5.286;2023-12-04T09:10:35;8.00;;;7.20;;
13816;SDS011;6979;52.116;5.286;2023-12-04T09:13:02;9.30;;;8.40;;
13816;SDS011;6979;52.116;5.286;2023-12-04T09:15:31;8.30;;;7.50;;
13816;SDS011;6979;52.116;5.286;2023-12-04T09:17:57;8.40;;;7.60;;
13816;SDS011;6979;52.116;5.286;2023-12-04T09:20:24;8.17;;;7.37;;
13816;SDS011;6979;52.116;5.286;2023-12-04T09:22:51;8.43;;;7.63;;
13816;SDS011;6979;52.116;5.286;2023-12-04T09:25:18;8.70;;;7.43;;
13816;SDS011;6979;52.116;5.286;2023-12-04T09:27:47;9.77;;;8.57;;
13816;SDS011;6979;52.116;5.286;2023-12-04T09:30:14;8.87;;;7.93;;
13816;SDS011;6979;52.116;5.286;2023-12-04T09:32:42;9.17;;;8.23;;
13816;SDS011;6979;52.116;5.286;2023-12-04T09:35:09;9.60;;;8.43;;
13816;SDS011;6979;52.116;5.286;2023-12-04T09:37:40;9.90;;;7.63;;
13816;SDS011;6979;52.116;5.286;2023-12-04T09:40:07;9.67;;;8.43;;
13816;SDS011;6979;52.116;5.286;2023-12-04T09:42:35;9.17;;;8.10;;
13816;SDS011;6979;52.116;5.286;2023-12-04T09:45:02;9.83;;;8.10;;
13816;SDS011;6979;52.116;5.286;2023-12-04T09:47:30;10.40;;;7.20;;
13816;SDS011;6979;52.116;5.286;2023-12-04T09:50:02;8.53;;;7.63;;
13816;SDS011;6979;52.116;5.286;2023-12-04T09:52:29;8.53;;;7.63;;
13816;SDS011;6979;52.116;5.286;2023-12-04T09:54:57;9.77;;;8.13;;
13816;SDS011;6979;52.116;5.286;2023-12-04T09:57:24;10.10;;;8.80;;
13816;SDS011;6979;52.116;5.286;2023-12-04T09:59:52;10.13;;;9.10;;
13816;SDS011;6979;52.116;5.286;2023-12-04T10:02:19;8.73;;;7.87;;
13816;SDS011;6979;52.116;5.286;2023-12-04T10:04:46;8.73;;;7.93;;
13816;SDS011;6979;52.116;5.286;2023-12-04T10:07:15;9.07;;;8.17;;
13816;SDS011;6979;52.116;5.286;2023-12-04T10:09:43;7.90;;;7.10;;
13816;SDS011;6979;52.116;5.286;2023-12-04T10:12:09;9.20;;;8.20;;
13816;SDS011;6979;52.116;5.286;2023-12-04T10:14:37;8.80;;;8.00;;
13816;SDS011;6979;52.116;5.286;2023-12-04T10:17:13;9.57;;;8.40;;
13816;SDS011;6979;52.116;5.286;2023-12-04T10:19:41;9.47;;;8.33;;
13816;SDS011;6979;52.116;5.286;2023-12-04T10:22:08;8.60;;;7.70;;
13816;SDS011;6979;52.116;5.286;2023-12-04T10:24:37;10.30;;;9.20;;
13816;SDS011;6979;52.116;5.286;2023-12-04T10:27:05;8.80;;;7.90;;
13816;SDS011;6979;52.116;5.286;2023-12-04T10:29:41;9.07;;;7.93;;
13816;SDS011;6979;52.116;5.286;2023-12-04T10:32:08;9.07;;;8.17;;
13816;SDS011;6979;52.116;5.286;2023-12-04T10:34:35;8.17;;;7.37;;
13816;SDS011;6979;52.116;5.286;2023-12-04T10:37:03;8.73;;;7.83;;
13816;SDS011;6979;52.116;5.286;2023-12-04T10:39:30;10.73;;;8.30;;
13816;SDS011;6979;52.116;5.286;2023-12-04T10:42:09;9.30;;;8.07;;
13816;SDS011;6979;52.116;5.286;2023-12-04T10:44:36;8.60;;;7.80;;
13816;SDS011;6979;52.116;5.286;2023-12-04T10:47:05;9.13;;;8.20;;
13816;SDS011;6979;52.116;5.286;2023-12-04T10:49:32;9.43;;;7.83;;
13816;SDS011;6979;52.116;5.286;2023-12-04T10:52:00;10.57;;;8.77;;
13816;SDS011;6979;52.116;5.286;2023-12-04T10:54:28;9.73;;;8.73;;
13816;SDS011;6979;52.116;5.286;2023-12-04T10:56:56;9.23;;;8.27;;
13816;SDS011;6979;52.116;5.286;2023-12-04T10:59:31;9.23;;;8.33;;
13816;SDS011;6979;52.116;5.286;2023-12-04T11:02:02;9.33;;;8.40;;
13816;SDS011;6979;52.116;5.286;2023-12-04T11:04:33;8.90;;;8.00;;
13816;SDS011;6979;52.116;5.286;2023-12-04T11:07:03;8.83;;;8.03;;
13816;SDS011;6979;52.116;5.286;2023-12-04T11:09:33;9.57;;;8.67;;
13816;SDS011;6979;52.116;5.286;2023-12-04T11:12:04;8.40;;;7.60;;
13816;SDS011;6979;52.116;5.286;2023-12-04T11:14:39;8.90;;;8.00;;
13816;SDS011;6979;52.116;5.286;2023-12-04T11:17:10;9.73;;;8.83;;
13816;SDS011;6979;52.116;5.286;2023-12-04T11:19:43;9.13;;;8.27;;
13816;SDS011;6979;52.116;5.286;2023-12-04T11:22:18;8.73;;;7.83;;
13816;SDS011;6979;52.116;5.286;2023-12-04T11:24:47;9.37;;;8.37;;
13816;SDS011;6979;52.116;5.286;2023-12-04T11:27:15;10.77;;;9.30;;
13816;SDS011;6979;52.116;5.286;2023-12-04T11:29:44;9.20;;;8.30;;
13816;SDS011;6979;52.116;5.286;2023-12-04T11:32:13;9.83;;;8.90;;
13816;SDS011;6979;52.116;5.286;2023-12-04T11:34:47;10.40;;;9.40;;
13816;SDS011;6979;52.116;5.286;2023-12-04T11:37:14;10.00;;;8.83;;
13816;SDS011;6979;52.116;5.286;2023-12-04T11:39:42;10.00;;;9.10;;
13816;SDS011;6979;52.116;5.286;2023-12-04T11:42:09;9.67;;;8.77;;
13816;SDS011;6979;52.116;5.286;2023-12-04T11:44:37;10.20;;;9.10;;
13816;SDS011;6979;52.116;5.286;2023-12-04T11:47:08;10.63;;;9.63;;
13816;SDS011;6979;52.116;5.286;2023-12-04T11:49:37;11.23;;;10.03;;
13816;SDS011;6979;52.116;5.286;2023-12-04T11:52:04;10.47;;;9.37;;
13816;SDS011;6979;52.116;5.286;2023-12-04T11:57:32;10.40;;;9.40;;
13816;SDS011;6979;52.116;5.286;2023-12-04T12:00:09;11.87;;;8.57;;
13816;SDS011;6979;52.116;5.286;2023-12-04T12:02:41;11.37;;;9.60;;
13816;SDS011;6979;52.116;5.286;2023-12-04T12:05:14;9.77;;;8.77;;
13816;SDS011;6979;52.116;5.286;2023-12-04T12:07:41;10.63;;;9.50;;
13816;SDS011;6979;52.116;5.286;2023-12-04T12:10:09;10.63;;;9.63;;
13816;SDS011;6979;52.116;5.286;2023-12-04T12:12:39;9.77;;;8.77;;
13816;SDS011;6979;52.116;5.286;2023-12-04T12:15:08;10.07;;;9.07;;
13816;SDS011;6979;52.116;5.286;2023-12-04T12:17:35;10.67;;;9.60;;
13816;SDS011;6979;52.116;5.286;2023-12-04T12:20:06;9.83;;;8.83;;
13816;SDS011;6979;52.116;5.286;2023-12-04T12:22:34;10.27;;;9.27;;
13816;SDS011;6979;52.116;5.286;2023-12-04T12:25:03;10.83;;;9.20;;
13816;SDS011;6979;52.116;5.286;2023-12-04T12:27:31;10.83;;;9.70;;
13816;SDS011;6979;52.116;5.286;2023-12-04T12:29:58;10.07;;;9.07;;
13816;SDS011;6979;52.116;5.286;2023-12-04T12:32:25;9.37;;;8.47;;
13816;SDS011;6979;52.116;5.286;2023-12-04T12:34:52;10.30;;;9.30;;
13816;SDS011;6979;52.116;5.286;2023-12-04T12:37:26;10.47;;;9.27;;
13816;SDS011;6979;52.116;5.286;2023-12-04T12:39:57;10.20;;;9.07;;
13816;SDS011;6979;52.116;5.286;2023-12-04T12:42:24;9.17;;;8.27;;
13816;SDS011;6979;52.116;5.286;2023-12-04T12:44:52;11.20;;;9.83;;
13816;SDS011;6979;52.116;5.286;2023-12-04T12:47:20;9.97;;;8.97;;
13816;SDS011;6979;52.116;5.286;2023-12-04T12:49:47;10.30;;;8.90;;
13816;SDS011;6979;52.116;5.286;2023-12-04T12:52:14;10.63;;;9.57;;
13816;SDS011;6979;52.116;5.286;2023-12-04T12:54:43;11.37;;;10.17;;
13816;SDS011;6979;52.116;5.286;2023-12-04T12:57:11;10.47;;;9.47;;
13816;SDS011;6979;52.116;5.286;2023-12-04T12:59:39;12.07;;;10.40;;
13816;SDS011;6979;52.116;5.286;2023-12-04T13:02:06;9.50;;;8.60;;
13816;SDS011;6979;52.116;5.286;2023-12-04T13:04:33;10.43;;;9.43;;
13816;SDS011;6979;52.116;5.286;2023-12-04T13:07:00;10.00;;;9.07;;
13816;SDS011;6979;52.116;5.286;2023-12-04T13:09:28;11.53;;;10.33;;
13816;SDS011;6979;52.116;5.286;2023-12-04T13:11:56;11.20;;;10.00;;
13816;SDS011;6979;52.116;5.286;2023-12-04T13:14:24;11.47;;;9.63;;
13816;SDS011;6979;52.116;5.286;2023-12-04T13:16:51;12.30;;;9.67;;
13816;SDS011;6979;52.116;5.286;2023-12-04T13:19:19;12.53;;;11.20;;
13816;SDS011;6979;52.116;5.286;2023-12-04T13:21:47;10.67;;;9.57;;
13816;SDS011;6979;52.116;5.286;2023-12-04T13:24:14;10.80;;;9.70;;
13816;SDS011;6979;52.116;5.286;2023-12-04T13:26:41;11.17;;;9.97;;
13816;SDS011;6979;52.116;5.286;2023-12-04T13:29:09;12.17;;;10.97;;
13816;SDS011;6979;52.116;5.286;2023-12-04T13:31:36;10.97;;;9.87;;
13816;SDS011;6979;52.116;5.286;2023-12-04T13:34:03;11.57;;;10.47;;
13816;SDS011;6979;52.116;5.286;2023-12-04T13:36:31;10.90;;;9.80;;
13816;SDS011;6979;52.116;5.286;2023-12-04T13:38:58;10.47;;;9.47;;
13816;SDS011;6979;52.116;5.286;2023-12-04T13:41:25;11.87;;;9.83;;
13816;SDS011;6979;52.116;5.286;2023-12-04T13:44:13;11.47;;;10.27;;
13816;SDS011;6979;52.116;5.286;2023-12-04T13:46:40;10.53;;;9.53;;
13816;SDS011;6979;52.116;5.286;2023-12-04T13:49:07;10.37;;;9.27;;
13816;SDS011;6979;52.116;5.286;2023-12-04T13:51:35;11.33;;;10.23;;
13816;SDS011;6979;52.116;5.286;2023-12-04T13:54:05;11.53;;;10.43;;
13816;SDS011;6979;52.116;5.286;2023-12-04T13:56:45;12.13;;;10.07;;
13816;SDS011;6979;52.116;5.286;2023-12-04T13:59:19;11.47;;;10.37;;
13816;SDS011;6979;52.116;5.286;2023-12-04T14:01:47;10.43;;;9.33;;
13816;SDS011;6979;52.116;5.286;2023-12-04T14:04:16;11.30;;;10.10;;
13816;SDS011;6979;52.116;5.286;2023-12-04T14:06:44;11.40;;;9.87;;
13816;SDS011;6979;52.116;5.286;2023-12-04T14:09:11;11.17;;;10.07;;
13816;SDS011;6979;52.116;5.286;2023-12-04T14:11:41;11.40;;;10.20;;
13816;SDS011;6979;52.116;5.286;2023-12-04T14:14:10;11.07;;;9.87;;
13816;SDS011;6979;52.116;5.286;2023-12-04T14:16:39;11.00;;;9.83;;
13816;SDS011;6979;52.116;5.286;2023-12-04T14:19:07;10.47;;;9.37;;
13816;SDS011;6979;52.116;5.286;2023-12-04T14:21:35;9.77;;;8.87;;
13816;SDS011;6979;52.116;5.286;2023-12-04T14:24:02;10.03;;;9.07;;
13816;SDS011;6979;52.116;5.286;2023-12-04T14:26:29;10.80;;;9.77;;
13816;SDS011;6979;52.116;5.286;2023-12-04T14:28:56;11.07;;;9.97;;
13816;SDS011;6979;52.116;5.286;2023-12-04T14:31:26;10.40;;;9.37;;
13816;SDS011;6979;52.116;5.286;2023-12-04T14:33:54;10.87;;;9.27;;
13816;SDS011;6979;52.116;5.286;2023-12-04T14:36:21;10.53;;;9.40;;
13816;SDS011;6979;52.116;5.286;2023-12-04T14:38:47;10.27;;;9.23;;
13816;SDS011;6979;52.116;5.286;2023-12-04T14:41:14;9.63;;;8.63;;
13816;SDS011;6979;52.116;5.286;2023-12-04T14:43:41;9.77;;;8.77;;
13816;SDS011;6979;52.116;5.286;2023-12-04T14:46:08;10.13;;;9.00;;
13816;SDS011;6979;52.116;5.286;2023-12-04T14:48:36;10.03;;;9.03;;
13816;SDS011;6979;52.116;5.286;2023-12-04T14:51:06;9.60;;;8.63;;
13816;SDS011;6979;52.116;5.286;2023-12-04T14:53:36;10.33;;;9.33;;
13816;SDS011;6979;52.116;5.286;2023-12-04T14:56:15;10.93;;;9.83;;
13816;SDS011;6979;52.116;5.286;2023-12-04T14:58:50;12.00;;;9.90;;
13816;SDS011;6979;52.116;5.286;2023-12-04T15:01:43;11.93;;;10.43;;